Greenbank, Washington
Current Conditions -  °F | °C
As of 8:08 PM on Thursday 27 Nov 2014 (Local Time) from KNUW Reporting Station
Broken Clouds Broken Clouds  
Wind Chill: 57°   Ceiling: 8000
Heat Index: 57°   Visibility: 10mi
Dew Point: 50°   Wind: 14mph
Humidity: 77%   Direction: 160°SSE
Pressure: 29.65"   Gusts: NA
Location:  48.1°N, 122.58°W
Report Text: KNUW 280408Z AUTO 16012KT 10SM SCT013 BKN080 14/10 A2965 RMK AO2 T01390100 $
Loading
Personal Weather Stations






























Interactive Weather Map New forecast layout! Learn more

10-Day Weather Forecast

Advertisements
Track Severe Weather on mobile